createdAt,value
2018-11-13T00:00:44.553Z,14.63
2018-11-13T00:03:12.997Z,15.23
2018-11-13T00:05:41.461Z,15.40
2018-11-13T00:08:09.893Z,15.50
2018-11-13T00:10:38.299Z,15.23
2018-11-13T00:13:06.726Z,15.70
2018-11-13T00:15:35.160Z,18.50
2018-11-13T00:18:03.599Z,16.50
2018-11-13T00:20:32.039Z,18.47
2018-11-13T00:23:00.499Z,17.17
2018-11-13T00:25:28.964Z,17.73
2018-11-13T00:27:57.349Z,17.13
2018-11-13T00:30:25.993Z,17.10
2018-11-13T00:32:54.416Z,17.07
2018-11-13T00:35:23.366Z,18.37
2018-11-13T00:37:52.249Z,16.93
2018-11-13T00:40:20.781Z,17.03
2018-11-13T00:42:49.637Z,17.17
2018-11-13T00:45:18.279Z,18.17
2018-11-13T00:47:46.630Z,18.43
2018-11-13T00:50:16.418Z,18.90
2018-11-13T00:52:45.603Z,18.77
2018-11-13T00:55:14.188Z,20.10
2018-11-13T00:57:42.584Z,18.10
2018-11-13T01:00:14.958Z,17.47
2018-11-13T01:02:43.509Z,17.40
2018-11-13T01:05:13.968Z,17.33
2018-11-13T01:07:43.163Z,17.57
2018-11-13T01:10:13.148Z,16.93
2018-11-13T01:12:42.277Z,16.63
2018-11-13T01:15:12.164Z,17.40
2018-11-13T01:17:41.029Z,18.60
2018-11-13T01:20:09.476Z,18.03
2018-11-13T01:22:37.884Z,19.53
2018-11-13T01:25:07.539Z,20.33
2018-11-13T01:27:36.098Z,20.40
2018-11-13T01:30:06.111Z,18.47
2018-11-13T01:32:34.592Z,21.07
2018-11-13T01:35:03.024Z,17.90
2018-11-13T01:37:31.456Z,21.17
2018-11-13T01:39:59.860Z,20.40
2018-11-13T01:42:28.299Z,18.93
2018-11-13T01:44:56.713Z,18.40
2018-11-13T01:47:25.118Z,20.07
2018-11-13T01:49:53.510Z,18.87
2018-11-13T01:52:21.923Z,18.87
2018-11-13T01:54:50.432Z,20.30
2018-11-13T01:57:18.832Z,17.70
2018-11-13T01:59:47.269Z,20.20
2018-11-13T02:02:15.641Z,18.27
2018-11-13T02:04:44.073Z,19.53
2018-11-13T02:07:12.501Z,20.17
2018-11-13T02:09:40.947Z,19.87
2018-11-13T02:12:09.436Z,19.37
2018-11-13T02:14:37.909Z,18.77
2018-11-13T02:17:06.975Z,20.30
2018-11-13T02:19:35.357Z,19.73
2018-11-13T02:22:03.824Z,16.93
2018-11-13T02:24:32.309Z,17.77
2018-11-13T02:27:00.764Z,17.50
2018-11-13T02:29:29.196Z,18.10
2018-11-13T02:31:57.608Z,19.23
2018-11-13T02:34:26.028Z,17.20
2018-11-13T02:36:54.425Z,17.10
2018-11-13T02:39:22.870Z,15.97
2018-11-13T02:41:51.300Z,15.73
2018-11-13T02:44:19.753Z,17.37
2018-11-13T02:46:48.188Z,16.70
2018-11-13T02:49:16.606Z,15.60
2018-11-13T02:51:45.056Z,15.53
2018-11-13T02:54:13.597Z,15.07
2018-11-13T02:56:41.986Z,15.13
2018-11-13T02:59:10.445Z,15.73
2018-11-13T03:01:38.864Z,13.67
2018-11-13T03:04:07.264Z,14.37
2018-11-13T03:06:35.720Z,13.13
2018-11-13T03:09:06.624Z,12.20
2018-11-13T03:11:35.016Z,12.07
2018-11-13T03:14:03.453Z,11.37
2018-11-13T03:16:31.885Z,11.37
2018-11-13T03:19:00.276Z,9.70
2018-11-13T03:21:28.682Z,8.13
2018-11-13T03:23:57.137Z,6.80
2018-11-13T03:26:25.542Z,6.77
2018-11-13T03:28:53.913Z,5.90
2018-11-13T03:31:22.563Z,4.73
2018-11-13T03:33:50.848Z,3.97
2018-11-13T03:36:19.277Z,4.10
2018-11-13T03:38:47.687Z,5.17
2018-11-13T03:41:16.076Z,4.77
2018-11-13T03:43:44.473Z,4.67
2018-11-13T03:46:12.876Z,4.73
2018-11-13T03:48:41.305Z,5.90
2018-11-13T03:51:09.710Z,4.00
2018-11-13T03:53:38.116Z,3.93
2018-11-13T03:56:06.601Z,4.80
2018-11-13T03:58:35.005Z,5.70
2018-11-13T04:01:03.368Z,6.87
2018-11-13T04:03:31.806Z,5.30
2018-11-13T04:06:00.191Z,4.40
2018-11-13T04:08:28.637Z,5.47
2018-11-13T04:10:57.041Z,4.60
2018-11-13T04:13:25.439Z,4.40
2018-11-13T04:15:53.936Z,4.70
2018-11-13T04:18:22.312Z,4.13
2018-11-13T04:20:50.717Z,4.37
2018-11-13T04:23:19.110Z,4.03
2018-11-13T04:25:47.492Z,4.00
2018-11-13T04:28:16.011Z,4.43
2018-11-13T04:30:44.443Z,3.90
2018-11-13T04:33:12.798Z,4.07
2018-11-13T04:35:41.201Z,3.30
2018-11-13T04:38:09.588Z,4.10
2018-11-13T04:40:37.984Z,4.00
2018-11-13T04:43:06.401Z,4.03
2018-11-13T04:45:34.840Z,3.80
2018-11-13T04:48:03.408Z,3.90
2018-11-13T04:50:31.940Z,4.20
2018-11-13T04:53:00.374Z,3.90
2018-11-13T04:55:28.769Z,3.93
2018-11-13T04:57:57.206Z,4.03
2018-11-13T05:00:25.673Z,4.70
2018-11-13T05:02:54.081Z,3.93
2018-11-13T05:05:22.792Z,4.37
2018-11-13T05:07:52.603Z,4.60
2018-11-13T05:10:21.245Z,4.17
2018-11-13T05:12:49.960Z,4.40
2018-11-13T05:15:18.372Z,4.27
2018-11-13T05:17:47.445Z,4.50
2018-11-13T05:20:16.836Z,4.53
2018-11-13T05:22:45.282Z,4.57
2018-11-13T05:25:15.444Z,4.90
2018-11-13T05:27:44.269Z,4.40
2018-11-13T05:30:15.581Z,4.83
2018-11-13T05:32:44.138Z,4.87
2018-11-13T05:35:14.080Z,5.07
2018-11-13T05:37:43.512Z,5.40
2018-11-13T05:40:17.117Z,4.40
2018-11-13T05:42:45.613Z,4.97
2018-11-13T05:45:15.532Z,6.70
2018-11-13T05:47:43.992Z,5.33
2018-11-13T05:50:13.985Z,4.57
2018-11-13T05:52:43.347Z,4.93
2018-11-13T05:55:12.162Z,4.80
2018-11-13T05:57:40.985Z,4.77
2018-11-13T06:00:12.411Z,4.57
2018-11-13T06:02:40.821Z,4.77
2018-11-13T06:05:10.029Z,4.53
2018-11-13T06:07:38.448Z,4.80
2018-11-13T06:10:07.898Z,4.47
2018-11-13T06:12:36.315Z,4.80
2018-11-13T06:15:05.217Z,4.43
2018-11-13T06:17:33.607Z,4.30
2018-11-13T06:20:02.040Z,4.33
2018-11-13T06:22:30.409Z,4.33
2018-11-13T06:24:58.834Z,4.20
2018-11-13T06:27:27.440Z,4.57
2018-11-13T06:29:55.837Z,4.60
2018-11-13T06:32:24.327Z,4.30
2018-11-13T06:34:52.827Z,4.30
2018-11-13T06:37:21.528Z,3.80
2018-11-13T06:39:49.980Z,4.37
2018-11-13T06:42:18.398Z,3.47
2018-11-13T06:44:46.847Z,3.40
2018-11-13T06:47:15.227Z,3.60
2018-11-13T06:49:43.704Z,3.53
2018-11-13T06:52:12.155Z,3.40
2018-11-13T06:54:54.246Z,3.30
2018-11-13T06:57:22.748Z,3.07
2018-11-13T06:59:51.652Z,3.00
2018-11-13T07:02:20.782Z,3.10
2018-11-13T07:04:49.397Z,2.63
2018-11-13T07:07:17.810Z,2.73
2018-11-13T07:09:46.222Z,2.80
2018-11-13T07:12:14.717Z,2.90
2018-11-13T07:14:43.136Z,2.83
2018-11-13T07:17:11.581Z,2.70
2018-11-13T07:19:40.307Z,2.77
2018-11-13T07:22:08.885Z,2.57
2018-11-13T07:24:37.862Z,2.60
2018-11-13T07:27:06.435Z,2.37
2018-11-13T07:29:34.800Z,2.30
2018-11-13T07:32:03.213Z,2.37
2018-11-13T07:34:31.651Z,2.27
2018-11-13T07:37:00.053Z,2.30
2018-11-13T07:39:28.491Z,2.40
2018-11-13T07:41:56.956Z,2.30
2018-11-13T07:44:25.629Z,2.50
2018-11-13T07:46:54.149Z,2.40
2018-11-13T07:49:22.569Z,2.37
2018-11-13T07:51:50.981Z,2.27
2018-11-13T07:54:19.447Z,2.20
2018-11-13T07:56:47.810Z,2.30
2018-11-13T07:59:16.208Z,2.30
2018-11-13T08:01:44.639Z,2.17
2018-11-13T08:04:13.081Z,2.33
2018-11-13T08:06:41.605Z,2.27
2018-11-13T08:09:10.009Z,2.13
2018-11-13T08:11:38.408Z,2.30
2018-11-13T08:14:06.822Z,2.40
2018-11-13T08:16:35.314Z,2.50
2018-11-13T08:19:03.720Z,2.40
2018-11-13T08:21:32.132Z,2.70
2018-11-13T08:24:00.552Z,2.20
2018-11-13T08:26:28.962Z,2.47
2018-11-13T08:28:57.494Z,2.70
2018-11-13T08:31:25.863Z,2.80
2018-11-13T08:33:54.197Z,2.50
2018-11-13T08:36:22.648Z,2.37
2018-11-13T08:38:51.037Z,2.43
2018-11-13T08:41:19.459Z,2.30
2018-11-13T08:43:47.918Z,2.27
2018-11-13T08:46:16.275Z,2.60
2018-11-13T08:48:44.682Z,2.53
2018-11-13T08:51:13.147Z,2.27
2018-11-13T08:53:41.561Z,2.40
2018-11-13T08:56:10.172Z,2.43
2018-11-13T08:58:38.633Z,2.73
2018-11-13T09:01:06.969Z,2.10
2018-11-13T09:03:35.400Z,2.17
2018-11-13T09:06:03.866Z,2.50
2018-11-13T09:08:32.269Z,2.70
2018-11-13T09:11:00.668Z,2.70
2018-11-13T09:13:29.184Z,3.10
2018-11-13T09:15:57.569Z,2.40
2018-11-13T09:18:26.067Z,2.57
2018-11-13T09:20:54.453Z,2.47
2018-11-13T09:23:22.893Z,2.77
2018-11-13T09:25:51.307Z,2.67
2018-11-13T09:28:19.713Z,2.93
2018-11-13T09:30:48.568Z,2.60
2018-11-13T09:33:16.664Z,2.40
2018-11-13T09:35:45.154Z,2.40
2018-11-13T09:38:13.553Z,2.70
2018-11-13T09:40:41.998Z,2.00
2018-11-13T09:43:10.421Z,2.70
2018-11-13T09:45:38.876Z,2.10
2018-11-13T09:48:07.246Z,2.40
2018-11-13T09:50:35.674Z,2.10
2018-11-13T09:53:04.104Z,2.10
2018-11-13T09:55:32.514Z,2.10
2018-11-13T09:58:00.952Z,2.30
2018-11-13T10:00:29.459Z,2.37
2018-11-13T10:02:59.910Z,2.60
2018-11-13T10:05:27.972Z,2.10
2018-11-13T10:07:56.869Z,2.20
2018-11-13T10:10:25.993Z,2.50
2018-11-13T10:12:54.367Z,2.13
2018-11-13T10:15:24.633Z,2.20
2018-11-13T10:17:53.421Z,2.27
2018-11-13T10:20:21.773Z,2.13
2018-11-13T10:22:51.516Z,2.20
2018-11-13T10:25:20.022Z,2.10
2018-11-13T10:27:48.738Z,2.03
2018-11-13T10:30:19.032Z,1.90
2018-11-13T10:32:48.037Z,2.57
2018-11-13T10:35:17.645Z,2.07
2018-11-13T10:37:46.053Z,2.10
2018-11-13T10:40:15.932Z,2.23
2018-11-13T10:42:44.602Z,1.90
2018-11-13T10:45:16.059Z,2.10
2018-11-13T10:47:44.488Z,2.00
2018-11-13T10:50:14.739Z,1.80
2018-11-13T10:52:43.124Z,2.10
2018-11-13T10:55:11.817Z,2.20
2018-11-13T10:57:41.043Z,2.20
2018-11-13T11:00:17.313Z,2.10
2018-11-13T11:02:53.323Z,1.73
2018-11-13T11:05:24.163Z,2.00
2018-11-13T11:07:52.981Z,2.17
2018-11-13T11:10:21.499Z,2.33
2018-11-13T11:12:49.994Z,1.80
2018-11-13T11:15:18.596Z,1.87
2018-11-13T11:17:46.984Z,2.33
2018-11-13T11:20:15.406Z,2.20
2018-11-13T11:22:43.857Z,1.97
2018-11-13T11:25:12.873Z,1.70
2018-11-13T11:27:41.334Z,2.30
2018-11-13T11:30:12.307Z,1.80
2018-11-13T11:32:40.716Z,2.30
2018-11-13T11:35:09.441Z,2.07
2018-11-13T11:37:38.749Z,1.70
2018-11-13T11:40:07.848Z,1.83
2018-11-13T11:42:36.611Z,2.33
2018-11-13T11:45:06.733Z,1.90
2018-11-13T11:47:35.151Z,2.33
2018-11-13T11:50:03.636Z,2.33
2018-11-13T11:52:32.126Z,1.90
2018-11-13T11:55:00.581Z,2.10
2018-11-13T11:57:28.985Z,1.90
2018-11-13T11:59:57.390Z,2.17
2018-11-13T12:02:25.796Z,2.20
2018-11-13T12:04:54.213Z,1.97
2018-11-13T12:07:22.617Z,2.10
2018-11-13T12:09:51.118Z,2.00
2018-11-13T12:12:19.598Z,2.00
2018-11-13T12:14:47.961Z,2.03
2018-11-13T12:17:16.401Z,2.30
2018-11-13T12:19:44.828Z,2.10
2018-11-13T12:22:13.253Z,2.03
2018-11-13T12:24:41.649Z,2.30
2018-11-13T12:27:10.076Z,2.03
2018-11-13T12:29:38.477Z,2.40
2018-11-13T12:32:07.201Z,1.70
2018-11-13T12:34:35.648Z,1.93
2018-11-13T12:37:04.043Z,2.47
2018-11-13T12:39:32.424Z,2.10
2018-11-13T12:42:00.868Z,2.10
2018-11-13T12:44:29.375Z,1.90
2018-11-13T12:46:57.855Z,2.10
2018-11-13T12:49:26.397Z,2.30
2018-11-13T12:52:00.234Z,1.93
2018-11-13T12:54:28.625Z,2.30
2018-11-13T12:56:57.080Z,2.43
2018-11-13T12:59:25.483Z,1.83
2018-11-13T13:01:53.891Z,2.20
2018-11-13T13:04:22.385Z,2.10
2018-11-13T13:06:51.047Z,1.93
2018-11-13T13:09:19.450Z,1.83
2018-11-13T13:11:47.866Z,2.60
2018-11-13T13:14:17.628Z,2.53
2018-11-13T13:16:46.417Z,2.30
2018-11-13T13:19:14.884Z,1.93
2018-11-13T13:21:43.381Z,1.97
2018-11-13T13:24:11.740Z,1.80
2018-11-13T13:26:40.252Z,2.03
2018-11-13T13:29:08.699Z,2.07
2018-11-13T13:31:38.872Z,2.10
2018-11-13T13:34:07.348Z,2.03
2018-11-13T13:36:35.804Z,2.13
2018-11-13T13:39:05.509Z,2.13
2018-11-13T13:41:34.773Z,2.30
2018-11-13T13:44:03.502Z,2.00
2018-11-13T13:46:32.013Z,2.07
2018-11-13T13:49:00.422Z,1.80
2018-11-13T13:51:28.864Z,2.40
2018-11-13T13:53:58.320Z,2.00
2018-11-13T13:56:26.770Z,1.90
2018-11-13T13:58:55.173Z,2.17
2018-11-13T14:01:23.562Z,2.20
2018-11-13T14:03:52.012Z,2.03
2018-11-13T14:06:21.757Z,2.27
2018-11-13T14:08:50.281Z,1.97
2018-11-13T14:11:18.936Z,2.07
2018-11-13T14:13:47.350Z,1.77
2018-11-13T14:16:17.613Z,2.10
2018-11-13T14:18:46.043Z,2.10
2018-11-13T14:21:14.809Z,1.90
2018-11-13T14:23:43.217Z,2.20
2018-11-13T14:26:11.631Z,2.10
2018-11-13T14:28:40.058Z,2.07
2018-11-13T14:31:08.589Z,1.90
2018-11-13T14:33:37.083Z,2.10
2018-11-13T14:36:06.214Z,2.10
2018-11-13T14:38:34.639Z,2.23
2018-11-13T14:41:03.025Z,2.30
2018-11-13T14:43:31.461Z,2.30
2018-11-13T14:45:59.876Z,2.40
2018-11-13T14:48:28.317Z,3.17
2018-11-13T14:50:56.773Z,2.53
2018-11-13T14:53:26.938Z,2.40
2018-11-13T14:55:55.390Z,2.30
2018-11-13T14:58:23.855Z,2.20
2018-11-13T15:00:52.280Z,2.33
2018-11-13T15:03:20.825Z,2.40
2018-11-13T15:05:49.291Z,2.27
2018-11-13T15:08:17.760Z,2.40
2018-11-13T15:10:50.135Z,2.27
2018-11-13T15:13:19.268Z,2.37
2018-11-13T15:15:47.860Z,2.03
2018-11-13T15:18:16.653Z,2.17
2018-11-13T15:20:45.898Z,2.03
2018-11-13T15:23:14.722Z,2.23
2018-11-13T15:25:43.168Z,2.60
2018-11-13T15:28:11.996Z,1.93
2018-11-13T15:30:45.935Z,2.73
2018-11-13T15:33:16.019Z,2.30
2018-11-13T15:35:44.735Z,2.60
2018-11-13T15:38:13.212Z,2.97
2018-11-13T15:40:41.783Z,2.57
2018-11-13T15:43:10.255Z,2.60
2018-11-13T15:45:38.697Z,3.10
2018-11-13T15:48:09.186Z,2.23
2018-11-13T15:50:38.276Z,2.20
2018-11-13T15:53:07.455Z,2.37
2018-11-13T15:55:35.888Z,2.53
2018-11-13T15:58:04.837Z,2.10
2018-11-13T16:00:35.552Z,2.17
2018-11-13T16:03:10.653Z,2.70
2018-11-13T16:05:42.468Z,2.33
2018-11-13T16:08:11.472Z,2.67
2018-11-13T16:10:39.971Z,2.80
2018-11-13T16:13:08.840Z,3.30
2018-11-13T16:15:37.445Z,3.17
2018-11-13T16:18:07.755Z,2.40
2018-11-13T16:20:36.421Z,2.87
2018-11-13T16:23:05.549Z,3.33
2018-11-13T16:25:33.997Z,2.73
2018-11-13T16:28:02.426Z,3.10
2018-11-13T16:30:32.688Z,2.93
2018-11-13T16:33:01.200Z,3.13
2018-11-13T16:35:30.343Z,3.07
2018-11-13T16:37:59.926Z,3.17
2018-11-13T16:40:29.744Z,2.70
2018-11-13T16:42:58.411Z,2.50
2018-11-13T16:45:27.713Z,2.70
2018-11-13T16:47:56.851Z,2.37
2018-11-13T16:50:29.611Z,3.13
2018-11-13T16:52:58.788Z,4.03
2018-11-13T16:55:32.625Z,3.47
2018-11-13T16:58:02.508Z,3.33
2018-11-13T17:00:31.041Z,2.83
2018-11-13T17:02:59.426Z,2.63
2018-11-13T17:05:28.607Z,2.63
2018-11-13T17:07:57.018Z,3.10
2018-11-13T17:10:26.822Z,3.10
2018-11-13T17:12:55.644Z,3.50
2018-11-13T17:15:25.466Z,3.70
2018-11-13T17:17:54.953Z,3.17
2018-11-13T17:20:23.435Z,3.33
2018-11-13T17:22:52.268Z,3.70
2018-11-13T17:25:22.279Z,6.10
2018-11-13T17:27:51.964Z,4.23
2018-11-13T17:30:22.957Z,3.87
2018-11-13T17:32:51.902Z,3.83
2018-11-13T17:35:21.818Z,3.87
2018-11-13T17:37:51.228Z,3.70
2018-11-13T17:40:21.252Z,3.20
2018-11-13T17:42:50.975Z,3.57
2018-11-13T17:45:37.469Z,3.60
2018-11-13T17:48:07.107Z,3.77
2018-11-13T17:50:36.984Z,3.73
2018-11-13T17:53:06.792Z,3.50
2018-11-13T17:55:35.248Z,3.30
2018-11-13T17:58:05.260Z,3.30
2018-11-13T18:00:35.116Z,3.43
2018-11-13T18:03:04.472Z,3.50
2018-11-13T18:05:33.625Z,3.33
2018-11-13T18:08:02.785Z,3.63
2018-11-13T18:10:32.312Z,5.67
2018-11-13T18:13:00.790Z,19.37
2018-11-13T18:15:30.966Z,11.90
2018-11-13T18:17:59.700Z,9.07
2018-11-13T18:20:32.573Z,8.27
2018-11-13T18:23:01.902Z,6.00
2018-11-13T18:25:30.634Z,5.03
2018-11-13T18:28:00.226Z,5.70
2018-11-13T18:30:30.457Z,5.27
2018-11-13T18:32:59.721Z,5.03
2018-11-13T18:35:30.615Z,5.80
2018-11-13T18:38:00.360Z,5.50
2018-11-13T18:40:29.217Z,5.50
2018-11-13T18:42:58.902Z,4.70
2018-11-13T18:45:29.933Z,11.40
2018-11-13T18:47:58.800Z,5.17
2018-11-13T18:50:35.817Z,5.30
2018-11-13T18:53:04.456Z,5.33
2018-11-13T18:55:32.960Z,5.57
2018-11-13T18:58:02.303Z,5.23
2018-11-13T19:00:32.689Z,4.83
2018-11-13T19:03:02.705Z,4.93
2018-11-13T19:05:32.126Z,4.50
2018-11-13T19:08:00.653Z,5.10
2018-11-13T19:10:35.831Z,4.87
2018-11-13T19:13:06.724Z,5.27
2018-11-13T19:15:36.896Z,4.80
2018-11-13T19:18:06.425Z,5.20
2018-11-13T19:20:34.894Z,5.03
2018-11-13T19:23:04.252Z,4.73
2018-11-13T19:25:33.784Z,4.83
2018-11-13T19:28:02.617Z,5.20
2018-11-13T19:30:31.099Z,5.53
2018-11-13T19:32:59.865Z,5.33
2018-11-13T19:35:28.099Z,4.67
2018-11-13T19:37:56.460Z,4.57
2018-11-13T19:40:27.282Z,4.27
2018-11-13T19:42:56.656Z,4.43
2018-11-13T19:45:25.042Z,4.80
2018-11-13T19:47:53.752Z,4.60
2018-11-13T19:50:24.589Z,5.00
2018-11-13T19:52:53.013Z,4.33
2018-11-13T19:55:22.201Z,9.73
2018-11-13T19:57:51.299Z,9.67
2018-11-13T20:00:23.154Z,6.07
2018-11-13T20:02:52.610Z,5.93
2018-11-13T20:05:21.580Z,5.77
2018-11-13T20:07:50.217Z,5.23
2018-11-13T20:10:22.730Z,4.77
2018-11-13T20:12:52.019Z,5.20
2018-11-13T20:15:21.389Z,4.70
2018-11-13T20:17:50.005Z,5.43
2018-11-13T20:20:20.905Z,5.17
2018-11-13T20:22:50.059Z,5.37
2018-11-13T20:25:20.439Z,5.87
2018-11-13T20:27:49.016Z,6.23
2018-11-13T20:30:21.035Z,5.53
2018-11-13T20:32:49.579Z,5.50
2018-11-13T20:35:21.287Z,5.23
2018-11-13T20:37:50.671Z,6.07
2018-11-13T20:40:21.631Z,5.50
2018-11-13T20:42:51.444Z,6.13
2018-11-13T20:45:20.204Z,5.90
2018-11-13T20:47:48.674Z,6.57
2018-11-13T20:50:18.484Z,6.17
2018-11-13T20:52:47.361Z,6.63
2018-11-13T20:55:15.919Z,6.80
2018-11-13T20:57:44.530Z,6.87
2018-11-13T21:00:16.316Z,6.67
2018-11-13T21:02:44.881Z,6.83
2018-11-13T21:05:13.680Z,6.63
2018-11-13T21:07:42.410Z,6.53
2018-11-13T21:10:18.788Z,6.73
2018-11-13T21:12:47.188Z,6.30
2018-11-13T21:15:17.122Z,6.80
2018-11-13T21:17:45.592Z,7.10
2018-11-13T21:20:15.406Z,6.27
2018-11-13T21:22:43.900Z,6.40
2018-11-13T21:25:14.102Z,6.60
2018-11-13T21:27:42.551Z,6.20
2018-11-13T21:30:13.821Z,6.60
2018-11-13T21:32:42.940Z,6.47
2018-11-13T21:35:12.225Z,6.80
2018-11-13T21:37:41.936Z,7.17
2018-11-13T21:40:12.692Z,6.00
2018-11-13T21:42:41.248Z,6.37
2018-11-13T21:45:10.460Z,7.00
2018-11-13T21:47:39.139Z,6.73
2018-11-13T21:50:09.488Z,6.47
2018-11-13T21:52:37.958Z,5.63
2018-11-13T21:55:08.496Z,6.03
2018-11-13T21:57:37.001Z,6.87
2018-11-13T22:00:11.324Z,6.27
2018-11-13T22:02:39.765Z,6.13
2018-11-13T22:05:09.161Z,5.90
2018-11-13T22:07:38.383Z,6.27
2018-11-13T22:10:08.279Z,5.83
2018-11-13T22:12:37.188Z,6.47
2018-11-13T22:15:08.091Z,6.07
2018-11-13T22:17:36.797Z,6.03
2018-11-13T22:20:06.285Z,6.13
2018-11-13T22:22:35.077Z,5.93
2018-11-13T22:25:03.221Z,5.63
2018-11-13T22:27:31.719Z,5.90
2018-11-13T22:30:00.655Z,5.23
2018-11-13T22:32:29.129Z,5.73
2018-11-13T22:34:57.579Z,5.47
2018-11-13T22:37:26.009Z,6.43
2018-11-13T22:39:54.973Z,6.10
2018-11-13T22:42:22.968Z,6.57
2018-11-13T22:44:51.618Z,6.70
2018-11-13T22:47:20.541Z,6.57
2018-11-13T22:49:48.996Z,6.10
2018-11-13T22:52:17.476Z,6.87
2018-11-13T22:54:45.955Z,6.70
2018-11-13T22:57:15.899Z,6.50
2018-11-13T22:59:44.473Z,5.87
2018-11-13T23:02:13.474Z,6.37
2018-11-13T23:04:42.056Z,6.20
2018-11-13T23:07:10.642Z,6.10
2018-11-13T23:09:39.193Z,5.70
2018-11-13T23:12:07.657Z,6.50
2018-11-13T23:14:36.127Z,6.07
2018-11-13T23:17:04.588Z,6.30
2018-11-13T23:19:33.012Z,6.27
2018-11-13T23:22:01.411Z,6.13
2018-11-13T23:24:30.176Z,6.50
2018-11-13T23:26:58.612Z,6.20
2018-11-13T23:29:27.018Z,6.07
2018-11-13T23:31:55.449Z,6.17
2018-11-13T23:34:23.869Z,5.47
2018-11-13T23:36:52.301Z,5.23
2018-11-13T23:39:20.825Z,5.47
2018-11-13T23:41:49.388Z,5.77
2018-11-13T23:44:18.963Z,5.87
2018-11-13T23:46:47.549Z,5.27
2018-11-13T23:49:16.332Z,5.73
2018-11-13T23:51:44.796Z,5.40
2018-11-13T23:54:13.216Z,5.07
2018-11-13T23:56:41.614Z,5.47
2018-11-13T23:59:10.010Z,5.50
